createdAt,value
2018-05-09T00:02:18.596Z,7.00
2018-05-09T00:04:47.698Z,6.80
2018-05-09T00:07:16.801Z,6.13
2018-05-09T00:09:45.984Z,6.50
2018-05-09T00:12:15.092Z,6.27
2018-05-09T00:14:44.277Z,7.07
2018-05-09T00:17:13.390Z,6.57
2018-05-09T00:19:42.518Z,6.83
2018-05-09T00:22:11.621Z,6.30
2018-05-09T00:24:40.770Z,6.67
2018-05-09T00:27:09.862Z,6.30
2018-05-09T00:29:38.958Z,5.93
2018-05-09T00:32:08.068Z,6.47
2018-05-09T00:34:37.175Z,5.80
2018-05-09T00:37:06.333Z,6.53
2018-05-09T00:39:35.529Z,6.30
2018-05-09T00:42:04.726Z,6.83
2018-05-09T00:44:33.929Z,7.10
2018-05-09T00:47:05.058Z,7.63
2018-05-09T00:49:34.166Z,7.40
2018-05-09T00:52:03.360Z,6.97
2018-05-09T00:54:32.544Z,6.73
2018-05-09T00:57:01.753Z,6.53
2018-05-09T00:59:30.870Z,6.87
2018-05-09T01:02:00.346Z,6.70
2018-05-09T01:04:29.444Z,7.90
2018-05-09T01:06:58.545Z,7.00
2018-05-09T01:09:27.654Z,8.43
2018-05-09T01:11:56.764Z,8.13
2018-05-09T01:14:25.912Z,8.00
2018-05-09T01:16:55.056Z,7.50
2018-05-09T01:19:24.177Z,8.10
2018-05-09T01:21:53.269Z,8.77
2018-05-09T01:24:25.588Z,7.87
2018-05-09T01:26:54.685Z,6.80
2018-05-09T01:29:23.870Z,8.03
2018-05-09T01:31:53.050Z,8.10
2018-05-09T01:34:22.525Z,7.83
2018-05-09T01:36:51.647Z,7.70
2018-05-09T01:39:20.845Z,7.77
2018-05-09T01:41:50.557Z,7.63
2018-05-09T01:44:19.661Z,7.40
2018-05-09T01:46:48.782Z,7.40
2018-05-09T01:49:17.865Z,7.27
2018-05-09T01:51:46.962Z,7.93
2018-05-09T01:54:18.068Z,7.83
2018-05-09T01:56:47.164Z,7.27
2018-05-09T01:59:16.273Z,6.87
2018-05-09T02:01:45.376Z,7.70
2018-05-09T02:04:14.572Z,7.63
2018-05-09T02:06:43.750Z,8.13
2018-05-09T02:09:12.999Z,7.50
2018-05-09T02:11:42.145Z,7.17
2018-05-09T02:14:11.385Z,7.60
2018-05-09T02:16:41.245Z,8.00
2018-05-09T02:19:10.479Z,8.23
2018-05-09T02:21:39.707Z,7.70
2018-05-09T02:24:08.879Z,7.60
2018-05-09T02:26:37.934Z,8.03
2018-05-09T02:29:07.051Z,7.93
2018-05-09T02:31:36.165Z,8.97
2018-05-09T02:34:05.313Z,9.17
2018-05-09T02:36:34.408Z,7.97
2018-05-09T02:39:03.573Z,8.40
2018-05-09T02:41:32.814Z,7.97
2018-05-09T02:44:01.913Z,8.00
2018-05-09T02:46:31.025Z,9.10
2018-05-09T02:49:00.187Z,9.63
2018-05-09T02:51:29.311Z,8.70
2018-05-09T02:53:58.430Z,8.70
2018-05-09T02:56:27.544Z,9.10
2018-05-09T02:58:56.637Z,8.50
2018-05-09T03:01:25.733Z,8.40
2018-05-09T03:03:54.850Z,8.07
2018-05-09T03:06:23.937Z,8.30
2018-05-09T03:08:53.066Z,8.60
2018-05-09T03:11:22.181Z,8.33
2018-05-09T03:13:51.293Z,9.17
2018-05-09T03:16:20.448Z,9.80
2018-05-09T03:18:49.629Z,9.23
2018-05-09T03:21:18.773Z,9.90
2018-05-09T03:23:47.880Z,9.37
2018-05-09T03:26:17.002Z,8.80
2018-05-09T03:28:46.117Z,9.50
2018-05-09T03:31:15.299Z,9.40
2018-05-09T03:33:44.426Z,9.30
2018-05-09T03:36:16.563Z,9.90
2018-05-09T03:38:45.769Z,9.47
2018-05-09T03:41:14.953Z,9.47
2018-05-09T03:43:46.098Z,9.97
2018-05-09T03:46:15.219Z,9.80
2018-05-09T03:48:44.361Z,9.50
2018-05-09T03:51:13.487Z,10.60
2018-05-09T03:53:42.583Z,10.80
2018-05-09T03:56:11.752Z,8.93
2018-05-09T03:58:40.887Z,9.73
2018-05-09T04:01:10.049Z,9.70
2018-05-09T04:03:45.189Z,11.40
2018-05-09T04:06:20.225Z,12.40
2018-05-09T04:08:55.221Z,11.50
2018-05-09T04:11:24.359Z,10.53
2018-05-09T04:13:53.445Z,11.10
2018-05-09T04:16:22.650Z,12.10
2018-05-09T04:18:51.829Z,10.70
2018-05-09T04:21:21.031Z,11.60
2018-05-09T04:23:50.235Z,11.90
2018-05-09T04:26:19.320Z,11.43
2018-05-09T04:28:48.453Z,9.47
2018-05-09T04:31:17.554Z,10.23
2018-05-09T04:33:46.673Z,11.30
2018-05-09T04:36:15.794Z,12.10
2018-05-09T04:38:46.817Z,11.00
2018-05-09T04:41:15.938Z,10.43
2018-05-09T04:43:45.141Z,10.20
2018-05-09T04:46:14.322Z,12.30
2018-05-09T04:48:43.417Z,10.80
2018-05-09T04:51:12.528Z,10.23
2018-05-09T04:53:41.710Z,10.70
2018-05-09T04:56:11.026Z,10.73
2018-05-09T04:58:40.129Z,10.07
2018-05-09T05:01:09.373Z,10.47
2018-05-09T05:03:38.481Z,9.87
2018-05-09T05:06:07.577Z,8.40
2018-05-09T05:08:36.785Z,8.90
2018-05-09T05:11:05.935Z,10.50
2018-05-09T05:13:35.086Z,9.80
2018-05-09T05:16:04.202Z,9.63
2018-05-09T05:18:33.293Z,10.03
2018-05-09T05:21:02.457Z,10.73
2018-05-09T05:23:31.652Z,10.23
2018-05-09T05:26:00.755Z,10.30
2018-05-09T05:28:29.865Z,10.90
2018-05-09T05:30:58.976Z,11.37
2018-05-09T05:33:28.135Z,11.03
2018-05-09T05:35:57.330Z,10.53
2018-05-09T05:38:26.506Z,10.50
2018-05-09T05:40:55.616Z,10.23
2018-05-09T05:43:24.817Z,10.20
2018-05-09T05:45:53.913Z,10.93
2018-05-09T05:48:23.101Z,11.47
2018-05-09T05:50:52.309Z,9.63
2018-05-09T05:53:21.395Z,11.17
2018-05-09T05:55:50.517Z,12.03
2018-05-09T05:58:19.686Z,12.27
2018-05-09T06:00:48.929Z,11.77
2018-05-09T06:03:18.278Z,11.30
2018-05-09T06:05:48.418Z,11.50
2018-05-09T06:08:17.575Z,10.70
2018-05-09T06:10:46.713Z,9.90
2018-05-09T06:13:15.888Z,10.00
2018-05-09T06:15:44.985Z,11.07
2018-05-09T06:18:15.095Z,10.63
2018-05-09T06:20:44.292Z,10.00
2018-05-09T06:23:14.396Z,10.70
2018-05-09T06:25:43.617Z,11.10
2018-05-09T06:28:12.737Z,9.87
2018-05-09T06:30:41.846Z,10.97
2018-05-09T06:33:10.963Z,10.53
2018-05-09T06:35:40.250Z,9.50
2018-05-09T06:38:10.401Z,9.60
2018-05-09T06:40:39.521Z,8.90
2018-05-09T06:43:12.251Z,8.33
2018-05-09T06:45:41.386Z,8.43
2018-05-09T06:48:10.510Z,9.13
2018-05-09T06:50:39.609Z,7.70
2018-05-09T06:53:08.710Z,7.10
2018-05-09T06:55:36.197Z,9.43
2018-05-09T06:58:03.653Z,7.80
2018-05-09T07:00:31.319Z,7.63
2018-05-09T07:02:58.758Z,7.77
2018-05-09T07:05:26.240Z,7.17
2018-05-09T07:07:53.700Z,8.07
2018-05-09T07:10:21.247Z,7.90
2018-05-09T07:12:48.724Z,8.20
2018-05-09T07:15:16.176Z,8.47
2018-05-09T07:17:43.731Z,7.73
2018-05-09T07:20:11.279Z,8.63
2018-05-09T07:22:38.951Z,9.20
2018-05-09T07:25:06.395Z,9.10
2018-05-09T07:27:33.871Z,7.70
2018-05-09T07:30:01.372Z,9.23
2018-05-09T07:32:28.859Z,10.33
2018-05-09T07:34:56.414Z,10.53
2018-05-09T07:37:23.966Z,10.33
2018-05-09T07:39:54.989Z,11.67
2018-05-09T07:42:22.470Z,10.70
2018-05-09T07:44:49.935Z,11.80
2018-05-09T07:47:17.488Z,9.87
2018-05-09T07:49:45.339Z,12.00
2018-05-09T07:52:12.831Z,9.90
2018-05-09T07:54:41.063Z,10.47
2018-05-09T07:57:08.631Z,8.90
2018-05-09T07:59:36.121Z,9.50
2018-05-09T08:02:04.368Z,9.27
2018-05-09T08:04:31.813Z,8.23
2018-05-09T08:06:59.271Z,8.23
2018-05-09T08:09:27.753Z,8.90
2018-05-09T08:11:55.242Z,7.33
2018-05-09T08:14:23.542Z,8.10
2018-05-09T08:16:51.888Z,8.00
2018-05-09T08:19:19.428Z,8.43
2018-05-09T08:21:46.973Z,8.17
2018-05-09T08:24:14.429Z,7.87
2018-05-09T08:26:41.978Z,7.63
2018-05-09T08:29:09.437Z,7.93
2018-05-09T08:31:36.897Z,7.83
2018-05-09T08:34:04.454Z,6.83
2018-05-09T08:36:31.995Z,6.87
2018-05-09T08:38:59.361Z,6.90
2018-05-09T08:41:26.974Z,6.70
2018-05-09T08:43:55.281Z,7.27
2018-05-09T08:46:22.647Z,5.47
2018-05-09T08:48:50.104Z,5.90
2018-05-09T08:51:17.567Z,6.00
2018-05-09T08:53:45.123Z,5.77
2018-05-09T08:56:12.591Z,5.80
2018-05-09T08:58:40.117Z,6.17
2018-05-09T09:01:07.594Z,6.07
2018-05-09T09:03:36.027Z,5.60
2018-05-09T09:06:03.538Z,5.27
2018-05-09T09:08:30.999Z,6.00
2018-05-09T09:10:58.621Z,6.03
2018-05-09T09:13:26.069Z,5.87
2018-05-09T09:15:53.662Z,5.20
2018-05-09T09:18:21.223Z,5.73
2018-05-09T09:20:48.699Z,6.03
2018-05-09T09:23:16.151Z,6.23
2018-05-09T09:25:43.608Z,6.30
2018-05-09T09:28:11.134Z,5.03
2018-05-09T09:30:38.690Z,6.30
2018-05-09T09:33:06.138Z,5.90
2018-05-09T09:35:33.591Z,5.13
2018-05-09T09:38:01.071Z,5.30
2018-05-09T09:40:28.624Z,5.77
2018-05-09T09:42:56.198Z,5.80
2018-05-09T09:45:25.150Z,5.90
2018-05-09T09:47:52.614Z,4.90
2018-05-09T09:50:20.068Z,5.50
2018-05-09T09:52:48.570Z,4.73
2018-05-09T09:55:16.032Z,5.13
2018-05-09T09:57:43.474Z,5.67
2018-05-09T10:00:10.939Z,5.13
2018-05-09T10:02:38.384Z,5.27
2018-05-09T10:05:05.939Z,5.73
2018-05-09T10:07:33.386Z,6.70
2018-05-09T10:10:01.122Z,6.43
2018-05-09T10:12:28.775Z,7.27
2018-05-09T10:14:56.292Z,7.00
2018-05-09T10:17:23.854Z,6.50
2018-05-09T10:19:52.103Z,6.93
2018-05-09T10:22:19.978Z,7.57
2018-05-09T10:24:47.431Z,7.10
2018-05-09T10:27:14.999Z,6.93
2018-05-09T10:29:42.464Z,6.80
2018-05-09T10:32:10.862Z,7.00
2018-05-09T10:34:38.317Z,7.60
2018-05-09T10:37:06.586Z,6.43
2018-05-09T10:39:34.831Z,6.80
2018-05-09T10:42:03.109Z,5.70
2018-05-09T10:44:30.547Z,5.63
2018-05-09T10:46:58.014Z,6.13
2018-05-09T10:49:25.563Z,6.50
2018-05-09T10:51:53.115Z,5.93
2018-05-09T10:54:20.569Z,5.63
2018-05-09T10:56:48.194Z,5.80
2018-05-09T10:59:15.635Z,5.67
2018-05-09T11:01:43.147Z,5.10
2018-05-09T11:04:11.786Z,5.07
2018-05-09T11:06:40.206Z,5.30
2018-05-09T11:09:11.247Z,4.90
2018-05-09T11:11:38.889Z,5.00
2018-05-09T11:14:06.380Z,5.40
2018-05-09T11:16:33.843Z,4.73
2018-05-09T11:19:04.420Z,5.20
2018-05-09T11:21:31.875Z,5.40
2018-05-09T11:23:59.326Z,4.93
2018-05-09T11:26:26.849Z,5.30
2018-05-09T11:28:55.182Z,5.30
2018-05-09T11:31:22.634Z,4.80
2018-05-09T11:33:51.083Z,5.00
2018-05-09T11:36:18.607Z,4.77
2018-05-09T11:38:46.820Z,5.40
2018-05-09T11:41:14.292Z,4.90
2018-05-09T11:43:42.806Z,5.40
2018-05-09T11:46:10.379Z,5.80
2018-05-09T11:48:37.839Z,5.73
2018-05-09T11:51:06.049Z,5.90
2018-05-09T11:53:34.186Z,6.27
2018-05-09T11:56:02.394Z,5.70
2018-05-09T11:58:29.854Z,6.90
2018-05-09T12:00:57.327Z,7.17
2018-05-09T12:03:25.848Z,5.90
2018-05-09T12:05:54.058Z,6.23
2018-05-09T12:08:21.714Z,6.50
2018-05-09T12:10:49.280Z,6.50
2018-05-09T12:13:16.778Z,6.27
2018-05-09T12:15:44.301Z,6.07
2018-05-09T12:18:11.823Z,6.57
2018-05-09T12:20:39.291Z,6.47
2018-05-09T12:23:06.788Z,6.30
2018-05-09T12:25:34.290Z,6.47
2018-05-09T12:28:01.759Z,6.83
2018-05-09T12:30:31.191Z,6.20
2018-05-09T12:32:59.672Z,6.27
2018-05-09T12:35:27.141Z,7.07
2018-05-09T12:37:54.683Z,6.90
2018-05-09T12:40:22.244Z,5.90
2018-05-09T12:42:49.700Z,5.90
2018-05-09T12:45:18.083Z,6.53
2018-05-09T12:47:45.701Z,5.97
2018-05-09T12:50:13.152Z,5.27
2018-05-09T12:52:40.718Z,6.00
2018-05-09T12:55:09.148Z,5.33
2018-05-09T12:57:37.508Z,6.17
2018-05-09T13:00:04.994Z,5.13
2018-05-09T13:02:32.825Z,6.60
2018-05-09T13:05:00.275Z,5.90
2018-05-09T13:07:27.906Z,5.90
2018-05-09T13:09:55.390Z,5.80
2018-05-09T13:12:22.850Z,6.97
2018-05-09T13:14:50.300Z,5.67
2018-05-09T13:17:17.852Z,6.00
2018-05-09T13:19:45.550Z,5.70
2018-05-09T13:22:13.073Z,5.93
2018-05-09T13:24:40.550Z,6.10
2018-05-09T13:27:08.236Z,7.60
2018-05-09T13:29:36.487Z,6.40
2018-05-09T13:32:06.037Z,6.33
2018-05-09T13:34:34.540Z,6.40
2018-05-09T13:37:02.016Z,6.53
2018-05-09T13:39:29.566Z,7.13
2018-05-09T13:41:57.034Z,5.90
2018-05-09T13:44:25.302Z,6.93
2018-05-09T13:46:53.158Z,5.63
2018-05-09T13:49:22.510Z,7.40
2018-05-09T13:51:49.969Z,6.73
2018-05-09T13:54:17.448Z,8.03
2018-05-09T13:56:45.274Z,6.80
2018-05-09T13:59:13.575Z,5.40
2018-05-09T14:01:41.077Z,6.07
2018-05-09T14:04:12.846Z,5.73
2018-05-09T14:06:43.506Z,6.60
2018-05-09T14:09:10.967Z,5.87
2018-05-09T14:11:38.407Z,6.23
2018-05-09T14:14:07.605Z,6.13
2018-05-09T14:16:35.061Z,6.40
2018-05-09T14:19:02.519Z,5.87
2018-05-09T14:21:30.001Z,5.60
2018-05-09T14:23:57.442Z,5.63
2018-05-09T14:26:25.871Z,5.90
2018-05-09T14:28:54.340Z,6.53
2018-05-09T14:31:22.228Z,5.83
2018-05-09T14:33:50.046Z,6.33
2018-05-09T14:36:17.499Z,5.47
2018-05-09T14:38:44.992Z,6.00
2018-05-09T14:41:13.199Z,5.57
2018-05-09T14:43:41.033Z,5.37
2018-05-09T14:46:09.485Z,5.60
2018-05-09T14:48:36.930Z,5.30
2018-05-09T14:51:05.322Z,5.67
2018-05-09T14:53:32.779Z,4.70
2018-05-09T14:56:00.236Z,5.77
2018-05-09T14:58:27.685Z,5.37
2018-05-09T15:00:57.058Z,5.00
2018-05-09T15:03:24.909Z,5.40
2018-05-09T15:05:52.425Z,4.77
2018-05-09T15:08:19.874Z,5.07
2018-05-09T15:10:47.357Z,5.40
2018-05-09T15:13:15.570Z,5.90
2018-05-09T15:15:43.028Z,5.73
2018-05-09T15:18:10.476Z,6.20
2018-05-09T15:20:38.850Z,5.40
2018-05-09T15:23:06.348Z,6.30
2018-05-09T15:25:33.892Z,5.70
2018-05-09T15:28:01.363Z,6.50
2018-05-09T15:30:30.960Z,5.50
2018-05-09T15:32:59.739Z,6.20
2018-05-09T15:35:27.221Z,6.30
2018-05-09T15:37:54.660Z,6.23
2018-05-09T15:40:32.862Z,6.20
2018-05-09T15:43:00.422Z,6.47
2018-05-09T15:45:31.330Z,6.53
2018-05-09T15:47:58.803Z,5.97
2018-05-09T15:50:26.259Z,6.57
2018-05-09T15:52:53.735Z,6.27
2018-05-09T15:55:21.192Z,6.90
2018-05-09T15:57:48.760Z,6.03
2018-05-09T16:00:16.403Z,5.97
2018-05-09T16:02:43.852Z,6.90
2018-05-09T16:05:11.308Z,6.53
2018-05-09T16:07:39.045Z,6.20
2018-05-09T16:10:06.545Z,5.60
2018-05-09T16:12:34.095Z,6.37
2018-05-09T16:15:01.646Z,6.47
2018-05-09T16:17:29.082Z,6.67
2018-05-09T16:19:57.591Z,6.23
2018-05-09T16:22:25.093Z,6.40
2018-05-09T16:24:52.607Z,6.10
2018-05-09T16:27:20.160Z,6.17
2018-05-09T16:29:49.647Z,6.60
2018-05-09T16:32:18.142Z,6.90
2018-05-09T16:34:45.586Z,5.70
2018-05-09T16:37:13.406Z,5.60
2018-05-09T16:39:40.879Z,6.30
2018-05-09T16:42:08.696Z,6.43
2018-05-09T16:44:37.097Z,6.10
2018-05-09T16:47:04.601Z,6.67
2018-05-09T16:49:32.603Z,8.07
2018-05-09T16:52:00.029Z,7.73
2018-05-09T16:54:27.496Z,6.10
2018-05-09T16:56:54.950Z,7.40
2018-05-09T16:59:23.388Z,6.70
2018-05-09T17:01:50.878Z,7.33
2018-05-09T17:04:18.347Z,7.47
2018-05-09T17:06:46.820Z,7.00
2018-05-09T17:09:14.293Z,6.70
2018-05-09T17:11:42.539Z,6.70
2018-05-09T17:14:09.997Z,6.77
2018-05-09T17:16:37.774Z,6.30
2018-05-09T17:19:05.335Z,6.50
2018-05-09T17:21:45.597Z,5.70
2018-05-09T17:24:13.828Z,5.90
2018-05-09T17:26:41.271Z,6.23
2018-05-09T17:29:08.860Z,5.73
2018-05-09T17:31:36.320Z,5.90
2018-05-09T17:34:03.769Z,6.20
2018-05-09T17:36:31.229Z,6.33
2018-05-09T17:38:58.661Z,6.23
2018-05-09T17:41:26.145Z,5.40
2018-05-09T17:43:53.578Z,6.07
2018-05-09T17:46:21.162Z,7.00
2018-05-09T17:48:49.569Z,6.10
2018-05-09T17:51:18.766Z,6.17
2018-05-09T17:53:46.282Z,6.40
2018-05-09T17:56:13.740Z,6.37
2018-05-09T17:58:42.264Z,6.70
2018-05-09T18:01:09.681Z,6.47
2018-05-09T18:03:37.159Z,6.90
2018-05-09T18:06:05.368Z,5.77
2018-05-09T18:08:34.746Z,6.83
2018-05-09T18:11:02.223Z,6.13
2018-05-09T18:13:29.659Z,7.10
2018-05-09T18:15:57.131Z,7.23
2018-05-09T18:18:24.575Z,6.70
2018-05-09T18:20:52.018Z,7.03
2018-05-09T18:23:19.486Z,6.87
2018-05-09T18:25:46.959Z,7.20
2018-05-09T18:28:14.437Z,7.53
2018-05-09T18:30:41.893Z,7.03
2018-05-09T18:33:09.345Z,6.87
2018-05-09T18:35:36.905Z,7.10
2018-05-09T18:38:04.360Z,7.23
2018-05-09T18:40:31.812Z,7.20
2018-05-09T18:42:59.311Z,7.33
2018-05-09T18:45:27.525Z,6.77
2018-05-09T18:47:55.328Z,6.90
2018-05-09T18:50:22.775Z,7.60
2018-05-09T18:52:50.232Z,7.60
2018-05-09T18:55:17.777Z,7.40
2018-05-09T18:57:45.234Z,7.83
2018-05-09T19:00:12.793Z,8.80
2018-05-09T19:02:40.237Z,8.13
2018-05-09T19:05:07.713Z,9.40
2018-05-09T19:07:37.098Z,8.80
2018-05-09T19:10:04.545Z,8.83
2018-05-09T19:12:32.006Z,9.40
2018-05-09T19:14:59.472Z,8.80
2018-05-09T19:17:27.253Z,7.53
2018-05-09T19:19:54.688Z,8.40
2018-05-09T19:22:24.161Z,8.50
2018-05-09T19:24:51.649Z,8.30
2018-05-09T19:27:20.125Z,11.20
2018-05-09T19:29:47.690Z,9.67
2018-05-09T19:32:15.426Z,10.13
2018-05-09T19:34:42.909Z,9.03
2018-05-09T19:37:10.475Z,9.50
2018-05-09T19:39:38.022Z,8.57
2018-05-09T19:42:05.797Z,8.97
2018-05-09T19:44:36.268Z,9.53
2018-05-09T19:47:03.723Z,9.03
2018-05-09T19:49:31.186Z,9.13
2018-05-09T19:51:58.645Z,10.83
2018-05-09T19:54:26.182Z,14.47
2018-05-09T19:56:54.437Z,14.23
2018-05-09T19:59:21.958Z,15.07
2018-05-09T20:01:50.074Z,15.13
2018-05-09T20:04:18.646Z,13.47
2018-05-09T20:06:46.928Z,15.67
2018-05-09T20:09:16.138Z,17.17
2018-05-09T20:11:43.611Z,18.17
2018-05-09T20:14:11.098Z,14.33
2018-05-09T20:16:38.710Z,17.70
2018-05-09T20:19:06.931Z,19.93
2018-05-09T20:21:34.391Z,19.80
2018-05-09T20:24:01.932Z,20.97
2018-05-09T20:26:29.410Z,21.40
2018-05-09T20:29:02.008Z,23.67
2018-05-09T20:31:47.115Z,23.67
2018-05-09T20:34:17.806Z,23.23
2018-05-09T20:36:46.040Z,22.17
2018-05-09T20:39:14.431Z,23.53
2018-05-09T20:41:42.111Z,23.40
2018-05-09T20:44:09.649Z,24.70
2018-05-09T20:46:37.219Z,24.57
2018-05-09T20:49:04.675Z,24.57
2018-05-09T20:51:44.144Z,25.87
2018-05-09T20:54:12.409Z,24.27
2018-05-09T20:56:40.638Z,25.40
2018-05-09T20:59:08.122Z,26.57
2018-05-09T21:01:47.655Z,25.10
2018-05-09T21:04:15.218Z,26.27
2018-05-09T21:06:42.765Z,25.63
2018-05-09T21:09:12.085Z,27.30
2018-05-09T21:11:41.256Z,25.07
2018-05-09T21:14:10.342Z,25.23
2018-05-09T21:16:39.486Z,22.97
2018-05-09T21:19:08.646Z,24.70
2018-05-09T21:21:37.773Z,26.77
2018-05-09T21:24:06.882Z,25.20
2018-05-09T21:26:36.045Z,26.63
2018-05-09T21:29:06.159Z,28.43
2018-05-09T21:31:35.251Z,26.73
2018-05-09T21:34:04.373Z,26.00
2018-05-09T21:36:33.471Z,27.77
2018-05-09T21:39:02.567Z,25.90
2018-05-09T21:41:31.969Z,26.83
2018-05-09T21:44:01.070Z,26.27
2018-05-09T21:46:30.279Z,25.63
2018-05-09T21:49:00.435Z,26.33
2018-05-09T21:51:30.550Z,25.00
2018-05-09T21:53:59.662Z,25.10
2018-05-09T21:56:28.771Z,26.47
2018-05-09T21:59:00.037Z,28.77
2018-05-09T22:01:29.134Z,26.73
2018-05-09T22:04:00.341Z,27.47
2018-05-09T22:06:29.466Z,25.80
2018-05-09T22:08:58.566Z,25.33
2018-05-09T22:11:27.720Z,26.33
2018-05-09T22:13:56.830Z,26.50
2018-05-09T22:16:26.882Z,27.37
2018-05-09T22:18:56.060Z,25.37
2018-05-09T22:21:25.118Z,28.53
2018-05-09T22:23:54.319Z,30.77
2018-05-09T22:26:23.517Z,29.17
2018-05-09T22:28:53.011Z,33.67
2018-05-09T22:31:22.198Z,34.20
2018-05-09T22:33:51.395Z,34.90
2018-05-09T22:36:20.611Z,38.70
2018-05-09T22:38:50.173Z,39.43
2018-05-09T22:41:19.272Z,40.50
2018-05-09T22:43:48.377Z,43.67
2018-05-09T22:46:17.469Z,43.80
2018-05-09T22:48:46.567Z,42.70
2018-05-09T22:51:15.769Z,44.83
2018-05-09T22:53:45.143Z,45.40
2018-05-09T22:56:14.252Z,43.53
2018-05-09T22:58:43.362Z,43.67
2018-05-09T23:01:12.608Z,44.50
2018-05-09T23:03:42.337Z,44.20
2018-05-09T23:06:11.430Z,44.93
2018-05-09T23:08:40.541Z,44.67
2018-05-09T23:11:09.666Z,46.53
2018-05-09T23:13:40.764Z,45.60
2018-05-09T23:16:09.878Z,46.40
2018-05-09T23:18:42.480Z,46.80
2018-05-09T23:21:11.656Z,45.73
2018-05-09T23:23:40.850Z,47.90
2018-05-09T23:26:10.043Z,48.90
2018-05-09T23:28:39.150Z,47.17
2018-05-09T23:31:08.337Z,44.87
2018-05-09T23:33:37.453Z,46.77
2018-05-09T23:36:06.628Z,48.60
2018-05-09T23:38:40.046Z,54.30
2018-05-09T23:41:09.164Z,63.40
2018-05-09T23:43:38.328Z,73.40
2018-05-09T23:46:07.529Z,82.27
2018-05-09T23:48:37.699Z,80.90
2018-05-09T23:51:06.852Z,80.10
2018-05-09T23:53:35.957Z,80.10
2018-05-09T23:56:06.027Z,81.23
2018-05-09T23:58:36.128Z,84.70
